Rogue Valley International Medford Airport
KMFR : now visible

Airfield :











YOU CAN JOIN US ON...

 
LOGIN :

Register | Disclaimer

   EN    FR    IT 

 









Legend :    VFR   Marginal VFR   IFR   Intensive IFR   Very Intensive IFR
Visi :
Ceiling :
>= 8 km
>= 3000ft
5 to 8 km
1000 to 3000 ft
1500m to 5 km
500 to 1000 ft
800 to 1500m
200 to 500 ft
< 800m
< 200 ft
Symbols :   Thunderstorms  Fog  Heavy snow  Heavy precipitations  Wind > 20 kt






- Airport Elevation : 1335 ft
- IATA code : MFR


KMFR - Rogue Valley International Medford

CURRENT METAR :
  • 192053Z 36007KT 10SM CLR 34/04 A3009 RMK AO2 SLP174 T03390039 56022

EXPIRED METARs :
  • 191953Z VRB05KT 10SM CLR 32/03 A3011 RMK AO2 SLP182 T03170028
  • 191853Z 01004KT 10SM CLR 29/09 A3013 RMK AO2 SLP190 T02940089
  • 191753Z VRB03KT 10SM CLR 27/10 A3015 RMK AO2 SLP198 T02670100 10272 20156 58010
  • 191653Z AUTO VRB04KT 10SM CLR 24/10 A3017 RMK AO2 SLP204 T02440100

TAF KMFR
Valid from the 19 at 18:00 until the 20 at 18:00 UTC


191741Z 1918/2018 VRB03KT P6SM SKC
FM192200 31007KT P6SM SKC
FM200100 33012KT P6SM SKC
FM200500 VRB02KT P6SM SKC
KZSE FIR / North America



MET'MAP, your aeronautical weather chart ! - Copyright ORBIFLY December 2007 - Disclaimer

ORBIFLY MET'MAP TEAM :

Programming & Development : Alexandra Zaïnal
Original concept : Baudouin d'Aumeries
Technical & hardware support : Manuel Goepfert
Assistance : Marc-Olivier Méhu




SOURCES & CREDITS :

   NOAA       Earth
Advisory